Погода Тонилана неделю

Халиско, Мексика

20 - 26 февраля
  • 20февраля
    Сегодня
    +14°
    +29°
    Ясно и безоблачно
    ВремяПогодаТемператураВлажностьДавлениеВетер, м/сВероятность осадков
    00:00Ясно и безоблачно+18°C43 %669 мм1.3 м/с2 %
    03:00Ясно и безоблачно+16°C35 %668 мм0.9 м/с2 %
    06:00Ясно и безоблачно+15°C36 %668 мм1.8 м/с2 %
    09:00Ясно и безоблачно+17°C35 %671 мм1.4 м/с2 %
    12:00Ясно и безоблачно+26°C28 %673 мм1.7 м/с2 %
    15:00Ясно и безоблачно+28°C37 %672 мм3.1 м/с2 %
    18:00Ясно и безоблачно+25°C55 %672 мм2.5 м/с2 %
    21:00Ясно и безоблачно+19°C73 %671 мм0.6 м/с2 %
  • 21февраля
    Среда
    +15°
    +30°
    Ясно и безоблачно
    ВремяПогодаТемператураВлажностьДавлениеВетер, м/сВероятность осадков
    00:00Ясно и безоблачно+19°C63 %671 мм2.0 м/с2 %
    03:00Ясно и безоблачно+18°C61 %670 мм1.5 м/с2 %
    06:00Ясно и безоблачно+16°C67 %669 мм1.8 м/с2 %
    09:00Ясно и безоблачно+19°C54 %672 мм0.6 м/с2 %
    12:00Ясно и безоблачно+26°C33 %673 мм1.8 м/с2 %
    15:00Ясно и безоблачно+30°C36 %671 мм3.1 м/с1 %
    18:00Ясно и безоблачно+26°C58 %670 мм2.9 м/с2 %
    21:00Ясно и безоблачно+21°C73 %670 мм0.4 м/с2 %
  • 22февраля
    Четверг
    +17°
    +31°
    Ясно и безоблачно
    ВремяПогодаТемператураВлажностьДавлениеВетер, м/сВероятность осадков
    00:00Ясно и безоблачно+19°C63 %669 мм1.6 м/с2 %
    03:00Ясно и безоблачно+18°C72 %668 мм1.7 м/с2 %
    06:00Ясно и безоблачно+16°C77 %667 мм1.7 м/с2 %
    09:00Ясно и безоблачно+20°C57 %669 мм0.8 м/с2 %
    12:00Ясно и безоблачно+27°C33 %670 мм1.9 м/с2 %
    15:00Ясно и безоблачно+30°C36 %669 мм3.7 м/с2 %
    18:00Ясно и безоблачно+26°C60 %668 мм2.7 м/с2 %
    21:00Ясно и безоблачно+20°C78 %668 мм0.8 м/с2 %
  • 23февраля
    Пятница
    +15°
    +31°
    Ясно и безоблачно
    ВремяПогодаТемператураВлажностьДавлениеВетер, м/сВероятность осадков
    00:00Ясно и безоблачно+19°C62 %667 мм1.6 м/с2 %
    03:00Ясно и безоблачно+20°C57 %666 мм1.2 м/с2 %
    06:00Ясно и безоблачно+19°C58 %666 мм1.3 м/с2 %
    09:00Ясно и безоблачно+21°C47 %667 мм0.9 м/с2 %
    12:00Ясно и безоблачно+27°C25 %668 мм1.9 м/с2 %
    15:00Ясно и безоблачно+30°C34 %667 мм3.4 м/с2 %
    18:00Ясно и безоблачно+26°C66 %667 мм2.6 м/с2 %
    21:00Ясно и безоблачно+21°C77 %667 мм0.7 м/с2 %
  • 24февраля
    Суббота
    +17°
    +31°
    Небольшая облачность
    ВремяПогодаТемператураВлажностьДавлениеВетер, м/сВероятность осадков
    00:00Ясно и безоблачно+20°C58 %667 мм1.6 м/с2 %
    03:00Ясно и безоблачно+18°C49 %666 мм1.4 м/с2 %
    06:00Ясно и безоблачно+16°C50 %666 мм1.2 м/с2 %
    09:00Ясно и безоблачно+21°C41 %669 мм1.0 м/с2 %
    12:00Практически безоблачно+27°C43 %670 мм2.0 м/с2 %
    15:00Небольшая облачность+30°C42 %670 мм3.2 м/с2 %
    18:00Облачно с прояснениями+25°C70 %669 мм2.7 м/с2 %
    21:00Практически безоблачно+20°C83 %669 мм0.6 м/с2 %
Мы используем cookies
Соглашаюсь